sensor_id;sensor_type;location;lat;lon;timestamp;P1;durP1;ratioP1;P2;durP2;ratioP2
36855;SDS011;22788;51.434;6.786;2023-03-14T00:02:08;4.87;;;1.67;;
36855;SDS011;22788;51.434;6.786;2023-03-14T00:04:34;6.67;;;1.87;;
36855;SDS011;22788;51.434;6.786;2023-03-14T00:07:01;2.87;;;1.37;;
36855;SDS011;22788;51.434;6.786;2023-03-14T00:09:28;3.97;;;1.90;;
36855;SDS011;22788;51.434;6.786;2023-03-14T00:11:56;3.27;;;1.73;;
36855;SDS011;22788;51.434;6.786;2023-03-14T00:14:22;2.20;;;1.73;;
36855;SDS011;22788;51.434;6.786;2023-03-14T00:16:49;3.77;;;2.10;;
36855;SDS011;22788;51.434;6.786;2023-03-14T00:19:15;4.93;;;1.70;;
36855;SDS011;22788;51.434;6.786;2023-03-14T00:21:41;4.20;;;1.83;;
36855;SDS011;22788;51.434;6.786;2023-03-14T00:24:07;3.50;;;1.77;;
36855;SDS011;22788;51.434;6.786;2023-03-14T00:26:33;4.87;;;1.87;;
36855;SDS011;22788;51.434;6.786;2023-03-14T00:29:01;3.63;;;1.83;;
36855;SDS011;22788;51.434;6.786;2023-03-14T00:31:27;4.53;;;1.90;;
36855;SDS011;22788;51.434;6.786;2023-03-14T00:33:53;7.10;;;1.80;;
36855;SDS011;22788;51.434;6.786;2023-03-14T00:36:20;5.13;;;1.77;;
36855;SDS011;22788;51.434;6.786;2023-03-14T00:38:46;6.10;;;2.00;;
36855;SDS011;22788;51.434;6.786;2023-03-14T00:41:15;7.50;;;2.10;;
36855;SDS011;22788;51.434;6.786;2023-03-14T00:43:42;4.97;;;2.33;;
36855;SDS011;22788;51.434;6.786;2023-03-14T00:46:10;5.23;;;2.27;;
36855;SDS011;22788;51.434;6.786;2023-03-14T00:48:37;7.20;;;2.90;;
36855;SDS011;22788;51.434;6.786;2023-03-14T00:51:03;8.40;;;3.03;;
36855;SDS011;22788;51.434;6.786;2023-03-14T00:53:34;7.53;;;2.40;;
36855;SDS011;22788;51.434;6.786;2023-03-14T00:56:02;4.70;;;2.20;;
36855;SDS011;22788;51.434;6.786;2023-03-14T00:58:28;4.97;;;1.80;;
36855;SDS011;22788;51.434;6.786;2023-03-14T01:00:54;3.23;;;1.93;;
36855;SDS011;22788;51.434;6.786;2023-03-14T01:03:22;4.00;;;1.60;;
36855;SDS011;22788;51.434;6.786;2023-03-14T01:05:48;4.43;;;2.10;;
36855;SDS011;22788;51.434;6.786;2023-03-14T01:08:14;4.47;;;1.70;;
36855;SDS011;22788;51.434;6.786;2023-03-14T01:10:40;5.80;;;1.83;;
36855;SDS011;22788;51.434;6.786;2023-03-14T01:13:06;7.57;;;2.67;;
36855;SDS011;22788;51.434;6.786;2023-03-14T01:15:33;6.07;;;2.60;;
36855;SDS011;22788;51.434;6.786;2023-03-14T01:17:59;5.93;;;1.87;;
36855;SDS011;22788;51.434;6.786;2023-03-14T01:20:26;5.60;;;1.90;;
36855;SDS011;22788;51.434;6.786;2023-03-14T01:22:52;7.83;;;2.63;;
36855;SDS011;22788;51.434;6.786;2023-03-14T01:25:19;3.33;;;1.90;;
36855;SDS011;22788;51.434;6.786;2023-03-14T01:27:45;5.53;;;2.20;;
36855;SDS011;22788;51.434;6.786;2023-03-14T01:30:11;6.20;;;2.50;;
36855;SDS011;22788;51.434;6.786;2023-03-14T01:32:38;7.77;;;2.90;;
36855;SDS011;22788;51.434;6.786;2023-03-14T01:35:04;5.13;;;2.37;;
36855;SDS011;22788;51.434;6.786;2023-03-14T01:37:32;4.07;;;1.87;;
36855;SDS011;22788;51.434;6.786;2023-03-14T01:39:58;5.23;;;2.00;;
36855;SDS011;22788;51.434;6.786;2023-03-14T01:42:24;6.20;;;1.77;;
36855;SDS011;22788;51.434;6.786;2023-03-14T01:44:51;5.70;;;1.83;;
36855;SDS011;22788;51.434;6.786;2023-03-14T01:47:19;6.10;;;1.70;;
36855;SDS011;22788;51.434;6.786;2023-03-14T01:49:45;4.13;;;1.70;;
36855;SDS011;22788;51.434;6.786;2023-03-14T01:52:15;7.47;;;2.40;;
36855;SDS011;22788;51.434;6.786;2023-03-14T01:54:46;6.50;;;1.77;;
36855;SDS011;22788;51.434;6.786;2023-03-14T01:57:15;7.90;;;1.97;;
36855;SDS011;22788;51.434;6.786;2023-03-14T01:59:46;3.57;;;1.60;;
36855;SDS011;22788;51.434;6.786;2023-03-14T02:02:15;5.27;;;2.40;;
36855;SDS011;22788;51.434;6.786;2023-03-14T02:04:42;7.13;;;3.00;;
36855;SDS011;22788;51.434;6.786;2023-03-14T02:07:10;7.07;;;2.33;;
36855;SDS011;22788;51.434;6.786;2023-03-14T02:09:40;4.23;;;1.60;;
36855;SDS011;22788;51.434;6.786;2023-03-14T02:12:09;6.63;;;2.40;;
36855;SDS011;22788;51.434;6.786;2023-03-14T02:14:36;6.83;;;2.20;;
36855;SDS011;22788;51.434;6.786;2023-03-14T02:17:04;4.30;;;1.53;;
36855;SDS011;22788;51.434;6.786;2023-03-14T02:19:35;4.03;;;1.50;;
36855;SDS011;22788;51.434;6.786;2023-03-14T02:22:13;4.90;;;2.17;;
36855;SDS011;22788;51.434;6.786;2023-03-14T02:24:42;3.40;;;2.20;;
36855;SDS011;22788;51.434;6.786;2023-03-14T02:27:13;8.70;;;2.10;;
36855;SDS011;22788;51.434;6.786;2023-03-14T02:29:43;3.97;;;1.90;;
36855;SDS011;22788;51.434;6.786;2023-03-14T02:32:14;5.90;;;1.97;;
36855;SDS011;22788;51.434;6.786;2023-03-14T02:34:43;2.43;;;1.73;;
36855;SDS011;22788;51.434;6.786;2023-03-14T02:37:13;7.97;;;2.10;;
36855;SDS011;22788;51.434;6.786;2023-03-14T02:39:41;7.33;;;1.67;;
36855;SDS011;22788;51.434;6.786;2023-03-14T02:42:09;6.27;;;1.80;;
36855;SDS011;22788;51.434;6.786;2023-03-14T02:44:46;5.10;;;1.70;;
36855;SDS011;22788;51.434;6.786;2023-03-14T02:47:14;3.87;;;1.50;;
36855;SDS011;22788;51.434;6.786;2023-03-14T02:49:41;4.37;;;1.40;;
36855;SDS011;22788;51.434;6.786;2023-03-14T02:52:07;5.13;;;1.37;;
36855;SDS011;22788;51.434;6.786;2023-03-14T02:54:33;6.77;;;2.07;;
36855;SDS011;22788;51.434;6.786;2023-03-14T02:56:59;6.40;;;2.10;;
36855;SDS011;22788;51.434;6.786;2023-03-14T02:59:25;5.17;;;1.60;;
36855;SDS011;22788;51.434;6.786;2023-03-14T03:01:53;3.47;;;1.37;;
36855;SDS011;22788;51.434;6.786;2023-03-14T03:04:19;6.33;;;1.77;;
36855;SDS011;22788;51.434;6.786;2023-03-14T03:06:45;5.27;;;1.80;;
36855;SDS011;22788;51.434;6.786;2023-03-14T03:09:11;3.33;;;1.30;;
36855;SDS011;22788;51.434;6.786;2023-03-14T03:11:37;3.83;;;1.50;;
36855;SDS011;22788;51.434;6.786;2023-03-14T03:14:03;5.47;;;1.87;;
36855;SDS011;22788;51.434;6.786;2023-03-14T03:16:29;3.57;;;1.40;;
36855;SDS011;22788;51.434;6.786;2023-03-14T03:18:56;7.37;;;1.90;;
36855;SDS011;22788;51.434;6.786;2023-03-14T03:21:22;6.70;;;1.33;;
36855;SDS011;22788;51.434;6.786;2023-03-14T03:23:48;4.80;;;1.70;;
36855;SDS011;22788;51.434;6.786;2023-03-14T03:26:15;4.03;;;1.50;;
36855;SDS011;22788;51.434;6.786;2023-03-14T03:28:41;3.30;;;1.13;;
36855;SDS011;22788;51.434;6.786;2023-03-14T03:31:07;4.40;;;1.57;;
36855;SDS011;22788;51.434;6.786;2023-03-14T03:33:34;1.93;;;1.30;;
36855;SDS011;22788;51.434;6.786;2023-03-14T03:36:03;3.10;;;1.23;;
36855;SDS011;22788;51.434;6.786;2023-03-14T03:38:29;5.57;;;1.63;;
36855;SDS011;22788;51.434;6.786;2023-03-14T03:40:55;3.43;;;1.70;;
36855;SDS011;22788;51.434;6.786;2023-03-14T03:43:21;4.20;;;1.50;;
36855;SDS011;22788;51.434;6.786;2023-03-14T03:45:47;4.77;;;1.50;;
36855;SDS011;22788;51.434;6.786;2023-03-14T03:48:13;6.27;;;1.80;;
36855;SDS011;22788;51.434;6.786;2023-03-14T03:50:43;4.83;;;1.63;;
36855;SDS011;22788;51.434;6.786;2023-03-14T03:53:11;5.00;;;1.40;;
36855;SDS011;22788;51.434;6.786;2023-03-14T03:55:40;3.20;;;1.50;;
36855;SDS011;22788;51.434;6.786;2023-03-14T03:58:06;8.07;;;2.27;;
36855;SDS011;22788;51.434;6.786;2023-03-14T04:00:32;6.43;;;1.93;;
36855;SDS011;22788;51.434;6.786;2023-03-14T04:02:58;4.27;;;1.40;;
36855;SDS011;22788;51.434;6.786;2023-03-14T04:05:24;5.40;;;1.60;;
36855;SDS011;22788;51.434;6.786;2023-03-14T04:07:50;5.50;;;1.70;;
36855;SDS011;22788;51.434;6.786;2023-03-14T04:10:18;4.67;;;1.60;;
36855;SDS011;22788;51.434;6.786;2023-03-14T04:12:44;6.33;;;1.90;;
36855;SDS011;22788;51.434;6.786;2023-03-14T04:15:10;6.77;;;1.90;;
36855;SDS011;22788;51.434;6.786;2023-03-14T04:17:36;5.10;;;1.60;;
36855;SDS011;22788;51.434;6.786;2023-03-14T04:20:05;7.70;;;2.17;;
36855;SDS011;22788;51.434;6.786;2023-03-14T04:22:32;7.50;;;3.10;;
36855;SDS011;22788;51.434;6.786;2023-03-14T04:24:58;5.17;;;1.60;;
36855;SDS011;22788;51.434;6.786;2023-03-14T04:27:26;4.10;;;2.33;;
36855;SDS011;22788;51.434;6.786;2023-03-14T04:29:52;4.40;;;2.60;;
36855;SDS011;22788;51.434;6.786;2023-03-14T04:32:18;6.07;;;2.33;;
36855;SDS011;22788;51.434;6.786;2023-03-14T04:34:44;5.00;;;1.90;;
36855;SDS011;22788;51.434;6.786;2023-03-14T04:37:10;3.57;;;2.23;;
36855;SDS011;22788;51.434;6.786;2023-03-14T04:39:36;2.60;;;1.60;;
36855;SDS011;22788;51.434;6.786;2023-03-14T04:42:02;3.63;;;1.70;;
36855;SDS011;22788;51.434;6.786;2023-03-14T04:44:29;6.60;;;2.13;;
36855;SDS011;22788;51.434;6.786;2023-03-14T04:46:55;7.50;;;1.70;;
36855;SDS011;22788;51.434;6.786;2023-03-14T04:49:21;5.53;;;2.07;;
36855;SDS011;22788;51.434;6.786;2023-03-14T04:51:48;5.43;;;2.23;;
36855;SDS011;22788;51.434;6.786;2023-03-14T04:54:14;4.50;;;1.87;;
36855;SDS011;22788;51.434;6.786;2023-03-14T04:56:40;6.07;;;2.00;;
36855;SDS011;22788;51.434;6.786;2023-03-14T04:59:06;5.00;;;2.17;;
36855;SDS011;22788;51.434;6.786;2023-03-14T05:01:33;3.67;;;2.00;;
36855;SDS011;22788;51.434;6.786;2023-03-14T05:04:00;5.63;;;1.83;;
36855;SDS011;22788;51.434;6.786;2023-03-14T05:06:26;2.20;;;1.30;;
36855;SDS011;22788;51.434;6.786;2023-03-14T05:08:52;3.70;;;1.60;;
36855;SDS011;22788;51.434;6.786;2023-03-14T05:11:18;5.30;;;1.97;;
36855;SDS011;22788;51.434;6.786;2023-03-14T05:13:44;4.97;;;2.47;;
36855;SDS011;22788;51.434;6.786;2023-03-14T05:16:10;8.70;;;3.00;;
36855;SDS011;22788;51.434;6.786;2023-03-14T05:18:38;3.63;;;1.53;;
36855;SDS011;22788;51.434;6.786;2023-03-14T05:21:04;2.53;;;1.43;;
36855;SDS011;22788;51.434;6.786;2023-03-14T05:23:30;5.53;;;2.17;;
36855;SDS011;22788;51.434;6.786;2023-03-14T05:25:56;1.83;;;1.60;;
36855;SDS011;22788;51.434;6.786;2023-03-14T05:28:23;3.80;;;1.53;;
36855;SDS011;22788;51.434;6.786;2023-03-14T05:30:49;3.17;;;1.33;;
36855;SDS011;22788;51.434;6.786;2023-03-14T05:33:15;3.27;;;1.37;;
36855;SDS011;22788;51.434;6.786;2023-03-14T05:35:42;1.97;;;1.40;;
36855;SDS011;22788;51.434;6.786;2023-03-14T05:38:08;2.57;;;1.47;;
36855;SDS011;22788;51.434;6.786;2023-03-14T05:40:35;2.43;;;1.30;;
36855;SDS011;22788;51.434;6.786;2023-03-14T05:43:01;4.07;;;1.37;;
36855;SDS011;22788;51.434;6.786;2023-03-14T05:45:27;2.73;;;1.57;;
36855;SDS011;22788;51.434;6.786;2023-03-14T05:47:53;4.00;;;1.50;;
36855;SDS011;22788;51.434;6.786;2023-03-14T05:50:19;3.10;;;2.27;;
36855;SDS011;22788;51.434;6.786;2023-03-14T05:52:46;5.30;;;1.90;;
36855;SDS011;22788;51.434;6.786;2023-03-14T05:55:12;1.83;;;1.30;;
36855;SDS011;22788;51.434;6.786;2023-03-14T05:57:38;2.23;;;1.20;;
36855;SDS011;22788;51.434;6.786;2023-03-14T06:00:05;1.77;;;1.20;;
36855;SDS011;22788;51.434;6.786;2023-03-14T06:02:32;4.63;;;1.20;;
36855;SDS011;22788;51.434;6.786;2023-03-14T06:04:58;3.10;;;1.60;;
36855;SDS011;22788;51.434;6.786;2023-03-14T06:07:24;1.63;;;1.10;;
36855;SDS011;22788;51.434;6.786;2023-03-14T06:09:51;4.63;;;1.43;;
36855;SDS011;22788;51.434;6.786;2023-03-14T06:12:17;2.07;;;1.03;;
36855;SDS011;22788;51.434;6.786;2023-03-14T06:14:43;1.67;;;1.03;;
36855;SDS011;22788;51.434;6.786;2023-03-14T06:17:09;3.70;;;1.60;;
36855;SDS011;22788;51.434;6.786;2023-03-14T06:19:35;2.87;;;1.20;;
36855;SDS011;22788;51.434;6.786;2023-03-14T06:22:01;2.33;;;1.40;;
36855;SDS011;22788;51.434;6.786;2023-03-14T06:24:27;3.93;;;1.60;;
36855;SDS011;22788;51.434;6.786;2023-03-14T06:26:55;7.43;;;1.73;;
36855;SDS011;22788;51.434;6.786;2023-03-14T06:29:21;5.27;;;1.50;;
36855;SDS011;22788;51.434;6.786;2023-03-14T06:31:47;2.27;;;1.80;;
36855;SDS011;22788;51.434;6.786;2023-03-14T06:34:13;5.77;;;2.50;;
36855;SDS011;22788;51.434;6.786;2023-03-14T06:36:39;3.37;;;2.17;;
36855;SDS011;22788;51.434;6.786;2023-03-14T06:39:05;6.07;;;2.30;;
36855;SDS011;22788;51.434;6.786;2023-03-14T06:41:31;4.13;;;2.23;;
36855;SDS011;22788;51.434;6.786;2023-03-14T06:43:58;5.70;;;2.43;;
36855;SDS011;22788;51.434;6.786;2023-03-14T06:46:24;7.37;;;2.27;;
36855;SDS011;22788;51.434;6.786;2023-03-14T06:48:50;2.73;;;1.80;;
36855;SDS011;22788;51.434;6.786;2023-03-14T06:51:18;4.63;;;1.77;;
36855;SDS011;22788;51.434;6.786;2023-03-14T06:53:44;2.33;;;1.57;;
36855;SDS011;22788;51.434;6.786;2023-03-14T06:56:10;3.30;;;1.80;;
36855;SDS011;22788;51.434;6.786;2023-03-14T06:58:36;3.40;;;1.67;;
36855;SDS011;22788;51.434;6.786;2023-03-14T07:01:04;3.20;;;1.50;;
36855;SDS011;22788;51.434;6.786;2023-03-14T07:03:30;5.33;;;1.50;;
36855;SDS011;22788;51.434;6.786;2023-03-14T07:05:57;3.00;;;1.50;;
36855;SDS011;22788;51.434;6.786;2023-03-14T07:08:23;5.00;;;2.53;;
36855;SDS011;22788;51.434;6.786;2023-03-14T07:10:49;4.40;;;2.50;;
36855;SDS011;22788;51.434;6.786;2023-03-14T07:13:23;4.70;;;2.00;;
36855;SDS011;22788;51.434;6.786;2023-03-14T07:15:50;6.80;;;2.60;;
36855;SDS011;22788;51.434;6.786;2023-03-14T07:18:17;3.50;;;2.37;;
36855;SDS011;22788;51.434;6.786;2023-03-14T07:20:44;3.50;;;2.03;;
36855;SDS011;22788;51.434;6.786;2023-03-14T07:23:10;2.30;;;1.70;;
36855;SDS011;22788;51.434;6.786;2023-03-14T07:25:36;2.67;;;1.70;;
36855;SDS011;22788;51.434;6.786;2023-03-14T07:28:02;5.30;;;2.07;;
36855;SDS011;22788;51.434;6.786;2023-03-14T07:30:28;2.70;;;1.60;;
36855;SDS011;22788;51.434;6.786;2023-03-14T07:32:54;3.23;;;1.30;;
36855;SDS011;22788;51.434;6.786;2023-03-14T07:35:22;3.57;;;1.80;;
36855;SDS011;22788;51.434;6.786;2023-03-14T07:37:48;2.10;;;1.60;;
36855;SDS011;22788;51.434;6.786;2023-03-14T07:40:14;2.83;;;1.50;;
36855;SDS011;22788;51.434;6.786;2023-03-14T07:42:40;2.00;;;1.10;;
36855;SDS011;22788;51.434;6.786;2023-03-14T07:45:07;2.40;;;1.30;;
36855;SDS011;22788;51.434;6.786;2023-03-14T07:47:33;2.27;;;1.63;;
36855;SDS011;22788;51.434;6.786;2023-03-14T07:49:59;2.23;;;1.40;;
36855;SDS011;22788;51.434;6.786;2023-03-14T07:52:27;2.97;;;1.87;;
36855;SDS011;22788;51.434;6.786;2023-03-14T07:54:53;3.13;;;1.70;;
36855;SDS011;22788;51.434;6.786;2023-03-14T07:57:19;1.93;;;1.73;;
36855;SDS011;22788;51.434;6.786;2023-03-14T07:59:45;4.83;;;1.80;;
36855;SDS011;22788;51.434;6.786;2023-03-14T08:02:11;1.87;;;1.50;;
36855;SDS011;22788;51.434;6.786;2023-03-14T08:04:38;2.97;;;1.43;;
36855;SDS011;22788;51.434;6.786;2023-03-14T08:07:05;2.53;;;1.47;;
36855;SDS011;22788;51.434;6.786;2023-03-14T08:09:32;1.90;;;1.30;;
36855;SDS011;22788;51.434;6.786;2023-03-14T08:11:59;1.70;;;1.30;;
36855;SDS011;22788;51.434;6.786;2023-03-14T08:14:25;1.50;;;1.37;;
36855;SDS011;22788;51.434;6.786;2023-03-14T08:16:51;1.93;;;1.70;;
36855;SDS011;22788;51.434;6.786;2023-03-14T08:19:17;2.50;;;1.40;;
36855;SDS011;22788;51.434;6.786;2023-03-14T08:21:43;3.43;;;1.43;;
36855;SDS011;22788;51.434;6.786;2023-03-14T08:24:09;1.57;;;1.20;;
36855;SDS011;22788;51.434;6.786;2023-03-14T08:26:37;1.27;;;1.07;;
36855;SDS011;22788;51.434;6.786;2023-03-14T08:29:03;2.93;;;1.57;;
36855;SDS011;22788;51.434;6.786;2023-03-14T08:31:29;3.60;;;1.43;;
36855;SDS011;22788;51.434;6.786;2023-03-14T08:33:57;1.20;;;1.10;;
36855;SDS011;22788;51.434;6.786;2023-03-14T08:36:24;1.53;;;1.43;;
36855;SDS011;22788;51.434;6.786;2023-03-14T08:38:50;2.80;;;1.40;;
36855;SDS011;22788;51.434;6.786;2023-03-14T08:41:16;1.47;;;1.37;;
36855;SDS011;22788;51.434;6.786;2023-03-14T08:43:43;1.87;;;1.50;;
36855;SDS011;22788;51.434;6.786;2023-03-14T08:46:09;1.83;;;1.50;;
36855;SDS011;22788;51.434;6.786;2023-03-14T08:48:35;1.90;;;1.57;;
36855;SDS011;22788;51.434;6.786;2023-03-14T08:51:05;1.77;;;1.63;;
36855;SDS011;22788;51.434;6.786;2023-03-14T08:53:32;5.13;;;1.93;;
36855;SDS011;22788;51.434;6.786;2023-03-14T08:55:58;2.70;;;1.63;;
36855;SDS011;22788;51.434;6.786;2023-03-14T08:58:24;2.83;;;1.50;;
36855;SDS011;22788;51.434;6.786;2023-03-14T09:00:51;2.93;;;1.90;;
36855;SDS011;22788;51.434;6.786;2023-03-14T09:03:17;2.13;;;1.50;;
36855;SDS011;22788;51.434;6.786;2023-03-14T09:05:43;1.93;;;1.30;;
36855;SDS011;22788;51.434;6.786;2023-03-14T09:08:09;1.80;;;1.30;;
36855;SDS011;22788;51.434;6.786;2023-03-14T09:10:36;4.03;;;1.50;;
36855;SDS011;22788;51.434;6.786;2023-03-14T09:13:02;5.40;;;1.50;;
36855;SDS011;22788;51.434;6.786;2023-03-14T09:15:28;1.57;;;1.33;;
36855;SDS011;22788;51.434;6.786;2023-03-14T09:17:55;1.87;;;0.70;;
36855;SDS011;22788;51.434;6.786;2023-03-14T09:20:21;1.50;;;0.90;;
36855;SDS011;22788;51.434;6.786;2023-03-14T09:22:47;1.13;;;1.03;;
36855;SDS011;22788;51.434;6.786;2023-03-14T09:25:13;2.13;;;1.17;;
36855;SDS011;22788;51.434;6.786;2023-03-14T09:27:39;2.33;;;0.93;;
36855;SDS011;22788;51.434;6.786;2023-03-14T09:30:06;1.80;;;0.97;;
36855;SDS011;22788;51.434;6.786;2023-03-14T09:32:33;1.93;;;0.87;;
36855;SDS011;22788;51.434;6.786;2023-03-14T09:35:00;1.10;;;1.00;;
36855;SDS011;22788;51.434;6.786;2023-03-14T09:37:26;0.73;;;0.70;;
36855;SDS011;22788;51.434;6.786;2023-03-14T09:39:52;2.67;;;0.90;;
36855;SDS011;22788;51.434;6.786;2023-03-14T09:42:19;2.50;;;1.10;;
36855;SDS011;22788;51.434;6.786;2023-03-14T09:44:51;1.17;;;1.07;;
36855;SDS011;22788;51.434;6.786;2023-03-14T09:47:20;1.90;;;1.27;;
36855;SDS011;22788;51.434;6.786;2023-03-14T09:49:47;1.83;;;1.30;;
36855;SDS011;22788;51.434;6.786;2023-03-14T09:52:14;5.20;;;1.60;;
36855;SDS011;22788;51.434;6.786;2023-03-14T09:54:43;1.63;;;1.23;;
36855;SDS011;22788;51.434;6.786;2023-03-14T09:57:13;1.10;;;1.00;;
36855;SDS011;22788;51.434;6.786;2023-03-14T09:59:41;4.03;;;1.67;;
36855;SDS011;22788;51.434;6.786;2023-03-14T10:02:11;2.00;;;1.40;;
36855;SDS011;22788;51.434;6.786;2023-03-14T10:04:42;2.10;;;1.30;;
36855;SDS011;22788;51.434;6.786;2023-03-14T10:07:11;2.60;;;1.63;;
36855;SDS011;22788;51.434;6.786;2023-03-14T10:09:43;3.53;;;1.60;;
36855;SDS011;22788;51.434;6.786;2023-03-14T10:12:09;1.63;;;1.50;;
36855;SDS011;22788;51.434;6.786;2023-03-14T10:14:36;2.00;;;1.43;;
36855;SDS011;22788;51.434;6.786;2023-03-14T10:17:11;2.73;;;1.40;;
36855;SDS011;22788;51.434;6.786;2023-03-14T10:19:37;1.70;;;1.40;;
36855;SDS011;22788;51.434;6.786;2023-03-14T10:22:18;1.70;;;0.97;;
36855;SDS011;22788;51.434;6.786;2023-03-14T10:24:46;1.57;;;1.40;;
36855;SDS011;22788;51.434;6.786;2023-03-14T10:27:18;2.87;;;1.20;;
36855;SDS011;22788;51.434;6.786;2023-03-14T10:29:51;1.30;;;1.20;;
36855;SDS011;22788;51.434;6.786;2023-03-14T10:32:19;1.77;;;1.50;;
36855;SDS011;22788;51.434;6.786;2023-03-14T10:34:46;1.13;;;1.03;;
36855;SDS011;22788;51.434;6.786;2023-03-14T10:37:32;5.40;;;1.53;;
36855;SDS011;22788;51.434;6.786;2023-03-14T10:39:58;2.13;;;1.60;;
36855;SDS011;22788;51.434;6.786;2023-03-14T10:42:26;2.33;;;1.37;;
36855;SDS011;22788;51.434;6.786;2023-03-14T10:44:55;2.30;;;1.13;;
36855;SDS011;22788;51.434;6.786;2023-03-14T10:47:24;2.03;;;1.50;;
36855;SDS011;22788;51.434;6.786;2023-03-14T10:49:52;1.60;;;1.47;;
36855;SDS011;22788;51.434;6.786;2023-03-14T10:52:20;3.13;;;1.60;;
36855;SDS011;22788;51.434;6.786;2023-03-14T10:54:49;3.97;;;1.80;;
36855;SDS011;22788;51.434;6.786;2023-03-14T10:57:20;1.70;;;1.30;;
36855;SDS011;22788;51.434;6.786;2023-03-14T10:59:46;2.53;;;1.80;;
36855;SDS011;22788;51.434;6.786;2023-03-14T11:05:04;2.13;;;1.27;;
36855;SDS011;22788;51.434;6.786;2023-03-14T11:07:41;1.87;;;1.53;;
36855;SDS011;22788;51.434;6.786;2023-03-14T11:10:13;5.80;;;1.70;;
36855;SDS011;22788;51.434;6.786;2023-03-14T11:12:47;1.53;;;1.40;;
36855;SDS011;22788;51.434;6.786;2023-03-14T11:15:22;5.63;;;1.80;;
36855;SDS011;22788;51.434;6.786;2023-03-14T11:17:58;2.10;;;1.70;;
36855;SDS011;22788;51.434;6.786;2023-03-14T11:20:42;3.07;;;2.07;;
36855;SDS011;22788;51.434;6.786;2023-03-14T11:23:16;3.60;;;2.70;;
36855;SDS011;22788;51.434;6.786;2023-03-14T11:25:48;3.83;;;2.03;;
36855;SDS011;22788;51.434;6.786;2023-03-14T11:28:26;2.63;;;1.63;;
36855;SDS011;22788;51.434;6.786;2023-03-14T11:31:03;4.03;;;1.90;;
36855;SDS011;22788;51.434;6.786;2023-03-14T11:33:44;5.93;;;2.47;;
36855;SDS011;22788;51.434;6.786;2023-03-14T11:36:15;2.33;;;1.40;;
36855;SDS011;22788;51.434;6.786;2023-03-14T11:38:48;4.30;;;1.60;;
36855;SDS011;22788;51.434;6.786;2023-03-14T11:41:17;3.47;;;2.10;;
36855;SDS011;22788;51.434;6.786;2023-03-14T11:43:48;2.93;;;1.50;;
36855;SDS011;22788;51.434;6.786;2023-03-14T11:46:17;3.03;;;1.60;;
36855;SDS011;22788;51.434;6.786;2023-03-14T11:48:51;3.27;;;1.47;;
36855;SDS011;22788;51.434;6.786;2023-03-14T11:51:25;3.20;;;1.60;;
36855;SDS011;22788;51.434;6.786;2023-03-14T11:53:57;2.77;;;1.60;;
36855;SDS011;22788;51.434;6.786;2023-03-14T11:56:30;5.07;;;1.90;;
36855;SDS011;22788;51.434;6.786;2023-03-14T11:59:01;5.43;;;1.50;;
36855;SDS011;22788;51.434;6.786;2023-03-14T12:01:33;3.57;;;1.90;;
36855;SDS011;22788;51.434;6.786;2023-03-14T12:04:11;2.97;;;1.63;;
36855;SDS011;22788;51.434;6.786;2023-03-14T12:06:45;4.10;;;2.07;;
36855;SDS011;22788;51.434;6.786;2023-03-14T12:09:13;5.63;;;2.07;;
36855;SDS011;22788;51.434;6.786;2023-03-14T12:11:43;5.50;;;1.87;;
36855;SDS011;22788;51.434;6.786;2023-03-14T12:14:18;5.73;;;2.30;;
36855;SDS011;22788;51.434;6.786;2023-03-14T12:16:47;6.03;;;2.50;;
36855;SDS011;22788;51.434;6.786;2023-03-14T12:19:21;5.30;;;2.53;;
36855;SDS011;22788;51.434;6.786;2023-03-14T12:21:53;2.97;;;1.60;;
36855;SDS011;22788;51.434;6.786;2023-03-14T12:24:23;4.30;;;1.97;;
36855;SDS011;22788;51.434;6.786;2023-03-14T12:26:54;10.10;;;2.77;;
36855;SDS011;22788;51.434;6.786;2023-03-14T12:29:22;6.40;;;2.20;;
36855;SDS011;22788;51.434;6.786;2023-03-14T12:31:49;4.43;;;1.97;;
36855;SDS011;22788;51.434;6.786;2023-03-14T12:34:31;4.43;;;1.93;;
36855;SDS011;22788;51.434;6.786;2023-03-14T12:36:59;7.67;;;2.20;;
36855;SDS011;22788;51.434;6.786;2023-03-14T12:39:40;6.53;;;2.07;;
36855;SDS011;22788;51.434;6.786;2023-03-14T12:42:14;9.73;;;2.70;;
36855;SDS011;22788;51.434;6.786;2023-03-14T12:44:47;5.23;;;2.20;;
36855;SDS011;22788;51.434;6.786;2023-03-14T12:50:14;7.63;;;2.87;;
36855;SDS011;22788;51.434;6.786;2023-03-14T12:52:47;6.87;;;2.03;;
36855;SDS011;22788;51.434;6.786;2023-03-14T12:55:29;5.43;;;1.90;;
36855;SDS011;22788;51.434;6.786;2023-03-14T12:58:04;6.10;;;1.83;;
36855;SDS011;22788;51.434;6.786;2023-03-14T13:00:39;6.87;;;2.30;;
36855;SDS011;22788;51.434;6.786;2023-03-14T13:03:12;6.07;;;2.17;;
36855;SDS011;22788;51.434;6.786;2023-03-14T13:05:51;7.63;;;1.83;;
36855;SDS011;22788;51.434;6.786;2023-03-14T13:08:31;6.40;;;2.30;;
36855;SDS011;22788;51.434;6.786;2023-03-14T13:11:00;10.63;;;2.70;;
36855;SDS011;22788;51.434;6.786;2023-03-14T13:13:29;7.00;;;2.83;;
36855;SDS011;22788;51.434;6.786;2023-03-14T13:15:55;8.37;;;2.50;;
36855;SDS011;22788;51.434;6.786;2023-03-14T13:18:24;12.33;;;2.50;;
36855;SDS011;22788;51.434;6.786;2023-03-14T13:20:55;14.13;;;3.37;;
36855;SDS011;22788;51.434;6.786;2023-03-14T13:23:25;6.83;;;2.57;;
36855;SDS011;22788;51.434;6.786;2023-03-14T13:25:53;9.40;;;3.10;;
36855;SDS011;22788;51.434;6.786;2023-03-14T13:28:20;11.37;;;3.53;;
36855;SDS011;22788;51.434;6.786;2023-03-14T13:30:48;9.67;;;2.97;;
36855;SDS011;22788;51.434;6.786;2023-03-14T13:33:23;16.47;;;3.47;;
36855;SDS011;22788;51.434;6.786;2023-03-14T13:35:54;15.67;;;3.47;;
36855;SDS011;22788;51.434;6.786;2023-03-14T13:38:22;16.80;;;3.70;;
36855;SDS011;22788;51.434;6.786;2023-03-14T13:40:50;8.63;;;4.13;;
36855;SDS011;22788;51.434;6.786;2023-03-14T13:43:20;15.30;;;3.70;;
36855;SDS011;22788;51.434;6.786;2023-03-14T13:45:53;9.83;;;2.73;;
36855;SDS011;22788;51.434;6.786;2023-03-14T13:48:21;14.00;;;3.30;;
36855;SDS011;22788;51.434;6.786;2023-03-14T13:50:51;14.90;;;3.80;;
36855;SDS011;22788;51.434;6.786;2023-03-14T13:53:19;12.93;;;3.13;;
36855;SDS011;22788;51.434;6.786;2023-03-14T13:55:45;14.93;;;3.30;;
36855;SDS011;22788;51.434;6.786;2023-03-14T14:01:04;9.70;;;3.10;;
36855;SDS011;22788;51.434;6.786;2023-03-14T14:03:36;12.23;;;3.10;;
36855;SDS011;22788;51.434;6.786;2023-03-14T14:06:05;15.13;;;3.30;;
36855;SDS011;22788;51.434;6.786;2023-03-14T14:08:36;10.77;;;2.83;;
36855;SDS011;22788;51.434;6.786;2023-03-14T14:11:06;11.73;;;2.70;;
36855;SDS011;22788;51.434;6.786;2023-03-14T14:13:34;13.57;;;3.07;;
36855;SDS011;22788;51.434;6.786;2023-03-14T14:16:01;12.97;;;2.80;;
36855;SDS011;22788;51.434;6.786;2023-03-14T14:18:30;10.73;;;2.60;;
36855;SDS011;22788;51.434;6.786;2023-03-14T14:20:57;10.03;;;3.00;;
36855;SDS011;22788;51.434;6.786;2023-03-14T14:23:25;7.17;;;2.30;;
36855;SDS011;22788;51.434;6.786;2023-03-14T14:25:52;10.30;;;2.80;;
36855;SDS011;22788;51.434;6.786;2023-03-14T14:28:23;10.17;;;2.87;;
36855;SDS011;22788;51.434;6.786;2023-03-14T14:30:58;9.67;;;2.63;;
36855;SDS011;22788;51.434;6.786;2023-03-14T14:33:28;6.10;;;2.40;;
36855;SDS011;22788;51.434;6.786;2023-03-14T14:35:54;9.90;;;2.27;;
36855;SDS011;22788;51.434;6.786;2023-03-14T14:38:22;10.70;;;2.70;;
36855;SDS011;22788;51.434;6.786;2023-03-14T14:40:49;10.97;;;2.47;;
36855;SDS011;22788;51.434;6.786;2023-03-14T14:43:20;5.87;;;2.20;;
36855;SDS011;22788;51.434;6.786;2023-03-14T14:45:49;7.33;;;2.00;;
36855;SDS011;22788;51.434;6.786;2023-03-14T14:48:18;9.67;;;2.63;;
36855;SDS011;22788;51.434;6.786;2023-03-14T14:50:56;8.17;;;2.70;;
36855;SDS011;22788;51.434;6.786;2023-03-14T14:53:27;6.63;;;2.00;;
36855;SDS011;22788;51.434;6.786;2023-03-14T14:55:55;10.47;;;2.33;;
36855;SDS011;22788;51.434;6.786;2023-03-14T14:58:24;6.30;;;2.13;;
36855;SDS011;22788;51.434;6.786;2023-03-14T15:00:53;5.20;;;2.10;;